sensor_id;sensor_type;location;lat;lon;timestamp;pressure;altitude;pressure_sealevel;temperature;humidity
50057;BME280;36875;49.468;11.200;2023-02-15T00:00:54;99372.88;;;24.68;30.11
50057;BME280;36875;49.468;11.200;2023-02-15T00:03:22;99391.84;;;24.69;30.10
50057;BME280;36875;49.468;11.200;2023-02-15T00:05:47;99381.25;;;24.62;30.20
50057;BME280;36875;49.468;11.200;2023-02-15T00:08:14;99382.19;;;24.58;30.25
50057;BME280;36875;49.468;11.200;2023-02-15T00:10:40;99386.53;;;24.59;30.14
50057;BME280;36875;49.468;11.200;2023-02-15T00:13:05;99378.91;;;24.56;30.11
50057;BME280;36875;49.468;11.200;2023-02-15T00:15:31;99369.81;;;24.55;29.93
50057;BME280;36875;49.468;11.200;2023-02-15T00:17:56;99369.72;;;24.47;30.31
50057;BME280;36875;49.468;11.200;2023-02-15T00:20:22;99369.91;;;24.50;30.42
50057;BME280;36875;49.468;11.200;2023-02-15T00:22:47;99366.97;;;24.47;30.29
50057;BME280;36875;49.468;11.200;2023-02-15T00:25:14;99366.75;;;24.43;30.32
50057;BME280;36875;49.468;11.200;2023-02-15T00:27:40;99366.75;;;24.43;30.31
50057;BME280;36875;49.468;11.200;2023-02-15T00:30:06;99367.38;;;24.40;30.32
50057;BME280;36875;49.468;11.200;2023-02-15T00:32:32;99370.91;;;24.40;30.15
50057;BME280;36875;49.468;11.200;2023-02-15T00:34:57;99369.31;;;24.39;30.22
50057;BME280;36875;49.468;11.200;2023-02-15T00:37:23;99354.63;;;24.30;30.40
50057;BME280;36875;49.468;11.200;2023-02-15T00:39:48;99363.91;;;24.34;30.34
50057;BME280;36875;49.468;11.200;2023-02-15T00:42:15;99353.59;;;24.26;30.32
50057;BME280;36875;49.468;11.200;2023-02-15T00:44:40;99360.72;;;24.27;30.25
50057;BME280;36875;49.468;11.200;2023-02-15T00:47:06;99367.34;;;24.26;30.46
50057;BME280;36875;49.468;11.200;2023-02-15T00:49:31;99360.31;;;24.20;30.35
50057;BME280;36875;49.468;11.200;2023-02-15T00:51:57;99356.66;;;24.24;30.48
50057;BME280;36875;49.468;11.200;2023-02-15T00:54:22;99356.47;;;24.21;30.16
50057;BME280;36875;49.468;11.200;2023-02-15T00:56:48;99361.34;;;24.24;30.11
50057;BME280;36875;49.468;11.200;2023-02-15T00:59:15;99354.00;;;24.19;30.43
50057;BME280;36875;49.468;11.200;2023-02-15T01:01:40;99352.38;;;24.18;30.30
50057;BME280;36875;49.468;11.200;2023-02-15T01:04:06;99350.13;;;24.20;30.15
50057;BME280;36875;49.468;11.200;2023-02-15T01:06:31;99348.31;;;24.16;30.34
50057;BME280;36875;49.468;11.200;2023-02-15T01:08:57;99340.84;;;24.02;30.13
50057;BME280;36875;49.468;11.200;2023-02-15T01:11:22;99350.75;;;24.17;30.05
50057;BME280;36875;49.468;11.200;2023-02-15T01:13:49;99347.28;;;24.12;30.11
50057;BME280;36875;49.468;11.200;2023-02-15T01:16:16;99348.19;;;24.07;30.12
50057;BME280;36875;49.468;11.200;2023-02-15T01:18:41;99345.44;;;24.07;30.14
50057;BME280;36875;49.468;11.200;2023-02-15T01:21:11;99340.03;;;24.02;30.49
50057;BME280;36875;49.468;11.200;2023-02-15T01:23:39;99340.84;;;24.02;30.02
50057;BME280;36875;49.468;11.200;2023-02-15T01:26:04;99335.44;;;23.97;30.18
50057;BME280;36875;49.468;11.200;2023-02-15T01:28:30;99340.66;;;23.99;30.30
50057;BME280;36875;49.468;11.200;2023-02-15T01:30:56;99345.63;;;23.97;29.96
50057;BME280;36875;49.468;11.200;2023-02-15T01:33:23;99290.38;;;23.65;30.21
50057;BME280;36875;49.468;11.200;2023-02-15T01:35:48;99336.97;;;23.90;30.18
50057;BME280;36875;49.468;11.200;2023-02-15T01:38:14;99328.94;;;23.93;29.97
50057;BME280;36875;49.468;11.200;2023-02-15T01:40:39;99328.50;;;23.86;30.25
50057;BME280;36875;49.468;11.200;2023-02-15T01:43:09;99311.13;;;23.72;30.13
50057;BME280;36875;49.468;11.200;2023-02-15T01:45:35;99326.88;;;23.85;30.09
50057;BME280;36875;49.468;11.200;2023-02-15T01:48:04;99319.81;;;23.79;30.21
50057;BME280;36875;49.468;11.200;2023-02-15T01:50:33;99308.97;;;23.68;30.17
50057;BME280;36875;49.468;11.200;2023-02-15T01:53:04;99314.38;;;23.74;30.24
50057;BME280;36875;49.468;11.200;2023-02-15T01:55:33;99315.41;;;23.64;30.40
50057;BME280;36875;49.468;11.200;2023-02-15T01:58:02;99310.91;;;23.68;30.27
50057;BME280;36875;49.468;11.200;2023-02-15T02:00:28;99308.97;;;23.55;30.41
50057;BME280;36875;49.468;11.200;2023-02-15T02:02:55;99313.31;;;23.56;30.56
50057;BME280;36875;49.468;11.200;2023-02-15T02:05:21;99303.13;;;23.56;30.35
50057;BME280;36875;49.468;11.200;2023-02-15T02:07:48;99301.31;;;23.52;30.38
50057;BME280;36875;49.468;11.200;2023-02-15T02:10:19;99278.19;;;23.39;30.02
50057;BME280;36875;49.468;11.200;2023-02-15T02:12:47;99297.84;;;23.46;30.26
50057;BME280;36875;49.468;11.200;2023-02-15T02:15:15;99296.59;;;23.38;30.37
50057;BME280;36875;49.468;11.200;2023-02-15T02:17:49;99299.13;;;23.35;30.37
50057;BME280;36875;49.468;11.200;2023-02-15T02:20:48;99287.31;;;23.34;30.48
50057;BME280;36875;49.468;11.200;2023-02-15T02:23:24;99284.22;;;23.22;30.37
50057;BME280;36875;49.468;11.200;2023-02-15T02:29:23;99277.91;;;23.21;30.49
50057;BME280;36875;49.468;11.200;2023-02-15T02:32:19;99282.66;;;23.16;30.56
50057;BME280;36875;49.468;11.200;2023-02-15T02:34:51;99282.66;;;23.16;30.59
50057;BME280;36875;49.468;11.200;2023-02-15T02:37:23;99280.31;;;23.09;30.70
50057;BME280;36875;49.468;11.200;2023-02-15T02:39:56;99277.09;;;23.02;30.91
50057;BME280;36875;49.468;11.200;2023-02-15T02:42:34;99258.03;;;22.91;30.54
50057;BME280;36875;49.468;11.200;2023-02-15T02:45:03;99281.56;;;22.98;30.62
50057;BME280;36875;49.468;11.200;2023-02-15T02:47:33;99281.56;;;22.98;30.67
50057;BME280;36875;49.468;11.200;2023-02-15T02:50:08;99278.28;;;22.96;30.54
50057;BME280;36875;49.468;11.200;2023-02-15T02:52:37;99284.97;;;22.89;30.63
50057;BME280;36875;49.468;11.200;2023-02-15T02:55:05;99280.06;;;22.86;30.63
50057;BME280;36875;49.468;11.200;2023-02-15T02:57:32;99276.78;;;22.84;30.70
50057;BME280;36875;49.468;11.200;2023-02-15T02:59:59;99274.16;;;22.79;30.66
50057;BME280;36875;49.468;11.200;2023-02-15T03:02:30;99251.06;;;22.61;30.97
50057;BME280;36875;49.468;11.200;2023-02-15T03:05:01;99252.69;;;22.62;30.90
50057;BME280;36875;49.468;11.200;2023-02-15T03:07:31;99273.75;;;22.67;30.96
50057;BME280;36875;49.468;11.200;2023-02-15T03:09:58;99262.03;;;22.61;30.92
50057;BME280;36875;49.468;11.200;2023-02-15T03:12:25;99273.25;;;22.65;30.82
50057;BME280;36875;49.468;11.200;2023-02-15T03:14:56;99262.63;;;22.58;31.08
50057;BME280;36875;49.468;11.200;2023-02-15T03:17:27;99264.28;;;22.59;30.66
50057;BME280;36875;49.468;11.200;2023-02-15T03:19:57;99258.03;;;22.54;30.83
50057;BME280;36875;49.468;11.200;2023-02-15T03:22:30;99262.19;;;22.51;30.82
50057;BME280;36875;49.468;11.200;2023-02-15T03:25:02;99259.72;;;22.49;30.84
50057;BME280;36875;49.468;11.200;2023-02-15T03:27:33;99255.13;;;22.45;30.74
50057;BME280;36875;49.468;11.200;2023-02-15T03:30:02;99251.13;;;22.37;30.93
50057;BME280;36875;49.468;11.200;2023-02-15T03:32:29;99257.72;;;22.36;30.82
50057;BME280;36875;49.468;11.200;2023-02-15T03:34:57;99268.16;;;22.34;31.06
50057;BME280;36875;49.468;11.200;2023-02-15T03:37:26;99266.00;;;22.31;31.05
50057;BME280;36875;49.468;11.200;2023-02-15T03:39:59;99275.34;;;22.30;30.95
50057;BME280;36875;49.468;11.200;2023-02-15T03:42:49;99269.34;;;22.28;31.00
50057;BME280;36875;49.468;11.200;2023-02-15T03:45:24;99265.59;;;22.19;30.94
50057;BME280;36875;49.468;11.200;2023-02-15T03:47:52;99270.25;;;22.18;31.06
50057;BME280;36875;49.468;11.200;2023-02-15T03:50:21;99264.53;;;22.14;31.12
50057;BME280;36875;49.468;11.200;2023-02-15T03:53:10;99267.03;;;22.11;31.04
50057;BME280;36875;49.468;11.200;2023-02-15T03:55:39;99263.47;;;22.10;31.19
50057;BME280;36875;49.468;11.200;2023-02-15T03:58:05;99268.97;;;22.10;30.91
50057;BME280;36875;49.468;11.200;2023-02-15T04:00:58;99263.91;;;21.99;31.14
50057;BME280;36875;49.468;11.200;2023-02-15T04:03:45;99266.94;;;21.97;31.17
50057;BME280;36875;49.468;11.200;2023-02-15T04:06:14;99272.47;;;21.92;30.96
50057;BME280;36875;49.468;11.200;2023-02-15T04:08:40;99275.50;;;21.90;31.05
50057;BME280;36875;49.468;11.200;2023-02-15T04:11:25;99276.91;;;21.88;31.23
50057;BME280;36875;49.468;11.200;2023-02-15T04:13:51;99282.94;;;21.85;31.17
50057;BME280;36875;49.468;11.200;2023-02-15T04:16:21;99285.47;;;21.81;31.17
50057;BME280;36875;49.468;11.200;2023-02-15T04:18:47;99279.22;;;21.75;31.53
50057;BME280;36875;49.468;11.200;2023-02-15T04:21:31;99278.41;;;21.75;31.15
50057;BME280;36875;49.468;11.200;2023-02-15T04:24:15;99283.66;;;21.71;31.07
50057;BME280;36875;49.468;11.200;2023-02-15T04:27:01;99298.44;;;21.70;31.37
50057;BME280;36875;49.468;11.200;2023-02-15T04:29:28;99288.88;;;21.68;31.10
50057;BME280;36875;49.468;11.200;2023-02-15T04:31:55;99278.59;;;21.54;31.28
50057;BME280;36875;49.468;11.200;2023-02-15T04:34:21;99294.94;;;21.65;31.18
50057;BME280;36875;49.468;11.200;2023-02-15T04:36:58;99294.69;;;21.61;31.13
50057;BME280;36875;49.468;11.200;2023-02-15T04:39:24;99293.63;;;21.57;31.26
50057;BME280;36875;49.468;11.200;2023-02-15T04:41:50;99293.13;;;21.55;31.38
50057;BME280;36875;49.468;11.200;2023-02-15T04:44:19;99287.69;;;21.50;31.23
50057;BME280;36875;49.468;11.200;2023-02-15T04:46:44;99289.59;;;21.49;31.64
50057;BME280;36875;49.468;11.200;2023-02-15T04:49:10;99283.59;;;21.47;31.45
50057;BME280;36875;49.468;11.200;2023-02-15T04:51:35;99282.22;;;21.45;31.31
50057;BME280;36875;49.468;11.200;2023-02-15T04:54:01;99288.56;;;21.40;31.55
50057;BME280;36875;49.468;11.200;2023-02-15T04:56:26;99279.28;;;21.36;31.10
50057;BME280;36875;49.468;11.200;2023-02-15T04:58:52;99283.41;;;21.33;31.34
50057;BME280;36875;49.468;11.200;2023-02-15T05:01:19;99286.72;;;21.30;31.36
50057;BME280;36875;49.468;11.200;2023-02-15T05:03:44;99263.81;;;21.21;31.51
50057;BME280;36875;49.468;11.200;2023-02-15T05:06:10;99287.28;;;21.27;31.54
50057;BME280;36875;49.468;11.200;2023-02-15T05:08:38;99288.97;;;21.23;31.48
50057;BME280;36875;49.468;11.200;2023-02-15T05:11:03;99276.38;;;21.22;31.60
50057;BME280;36875;49.468;11.200;2023-02-15T05:13:29;99274.78;;;21.16;31.68
50057;BME280;36875;49.468;11.200;2023-02-15T05:15:54;99273.97;;;21.15;31.81
50057;BME280;36875;49.468;11.200;2023-02-15T05:18:21;99266.09;;;21.09;31.45
50057;BME280;36875;49.468;11.200;2023-02-15T05:20:47;99261.16;;;21.11;31.67
50057;BME280;36875;49.468;11.200;2023-02-15T05:23:13;99253.78;;;21.06;31.46
50057;BME280;36875;49.468;11.200;2023-02-15T05:25:39;99262.81;;;21.07;31.83
50057;BME280;36875;49.468;11.200;2023-02-15T05:28:25;99245.66;;;20.96;31.76
50057;BME280;36875;49.468;11.200;2023-02-15T05:31:00;99258.78;;;20.99;31.70
50057;BME280;36875;49.468;11.200;2023-02-15T05:33:28;99249.47;;;20.95;31.79
50057;BME280;36875;49.468;11.200;2023-02-15T05:35:54;99229.91;;;20.83;31.70
50057;BME280;36875;49.468;11.200;2023-02-15T05:38:19;99231.19;;;20.90;31.86
50057;BME280;36875;49.468;11.200;2023-02-15T05:40:45;99230.41;;;20.90;32.02
50057;BME280;36875;49.468;11.200;2023-02-15T05:43:10;99241.91;;;20.87;31.80
50057;BME280;36875;49.468;11.200;2023-02-15T05:45:35;99236.19;;;20.83;31.66
50057;BME280;36875;49.468;11.200;2023-02-15T05:48:01;99236.97;;;20.84;31.72
50057;BME280;36875;49.468;11.200;2023-02-15T05:50:28;99238.94;;;20.78;31.70
50057;BME280;36875;49.468;11.200;2023-02-15T05:52:53;99228.38;;;20.66;31.89
50057;BME280;36875;49.468;11.200;2023-02-15T05:55:19;99258.13;;;20.73;31.92
50057;BME280;36875;49.468;11.200;2023-02-15T05:57:45;99247.75;;;20.70;32.05
50057;BME280;36875;49.468;11.200;2023-02-15T06:00:12;99250.50;;;20.70;31.86
50057;BME280;36875;49.468;11.200;2023-02-15T06:02:39;99251.06;;;20.67;31.86
50057;BME280;36875;49.468;11.200;2023-02-15T06:05:05;99255.19;;;20.64;31.86
50057;BME280;36875;49.468;11.200;2023-02-15T06:07:32;99241.50;;;20.59;32.06
50057;BME280;36875;49.468;11.200;2023-02-15T06:09:58;99251.06;;;20.56;31.73
50057;BME280;36875;49.468;11.200;2023-02-15T06:12:23;99252.47;;;20.54;32.30
50057;BME280;36875;49.468;11.200;2023-02-15T06:14:49;99245.94;;;20.50;32.01
50057;BME280;36875;49.468;11.200;2023-02-15T06:17:15;99230.97;;;20.37;31.93
50057;BME280;36875;49.468;11.200;2023-02-15T06:19:41;99239.13;;;20.42;32.15
50057;BME280;36875;49.468;11.200;2023-02-15T06:22:07;99241.31;;;20.40;32.70
50057;BME280;36875;49.468;11.200;2023-02-15T06:24:34;99238.88;;;20.38;32.72
50057;BME280;36875;49.468;11.200;2023-02-15T06:26:59;99242.72;;;20.37;32.75
50057;BME280;36875;49.468;11.200;2023-02-15T06:29:25;99238.09;;;20.33;32.38
50057;BME280;36875;49.468;11.200;2023-02-15T06:31:50;99243.00;;;20.31;32.85
50057;BME280;36875;49.468;11.200;2023-02-15T06:34:16;99248.78;;;20.29;32.65
50057;BME280;36875;49.468;11.200;2023-02-15T06:36:41;99255.59;;;20.27;32.86
50057;BME280;36875;49.468;11.200;2023-02-15T06:39:07;99258.88;;;20.23;32.65
50057;BME280;36875;49.468;11.200;2023-02-15T06:41:34;99258.34;;;20.21;33.07
50057;BME280;36875;49.468;11.200;2023-02-15T06:43:59;99253.47;;;20.18;33.17
50057;BME280;36875;49.468;11.200;2023-02-15T06:46:25;99257.84;;;20.14;32.84
50057;BME280;36875;49.468;11.200;2023-02-15T06:48:50;99265.50;;;20.12;33.27
50057;BME280;36875;49.468;11.200;2023-02-15T06:51:16;99262.50;;;20.09;33.38
50057;BME280;36875;49.468;11.200;2023-02-15T06:53:41;99253.50;;;20.08;33.60
50057;BME280;36875;49.468;11.200;2023-02-15T06:56:08;99257.34;;;20.07;33.19
50057;BME280;36875;49.468;11.200;2023-02-15T06:58:37;99256.22;;;20.03;33.38
50057;BME280;36875;49.468;11.200;2023-02-15T07:01:03;99269.63;;;20.05;33.83
50057;BME280;36875;49.468;11.200;2023-02-15T07:03:29;99265.28;;;20.03;33.54
50057;BME280;36875;49.468;11.200;2023-02-15T07:05:55;99271.56;;;20.04;34.05
50057;BME280;36875;49.468;11.200;2023-02-15T07:08:21;99268.56;;;20.00;33.81
50057;BME280;36875;49.468;11.200;2023-02-15T07:10:48;99273.75;;;20.02;34.35
50057;BME280;36875;49.468;11.200;2023-02-15T07:13:14;99268.81;;;19.99;33.91
50057;BME280;36875;49.468;11.200;2023-02-15T07:15:43;99265.28;;;19.98;34.68
50057;BME280;36875;49.468;11.200;2023-02-15T07:18:08;99263.91;;;19.96;34.41
50057;BME280;36875;49.468;11.200;2023-02-15T07:20:36;99261.75;;;19.93;34.21
50057;BME280;36875;49.468;11.200;2023-02-15T07:23:03;99263.94;;;19.91;34.01
50057;BME280;36875;49.468;11.200;2023-02-15T07:25:28;99271.03;;;19.87;34.12
50057;BME280;36875;49.468;11.200;2023-02-15T07:27:56;99251.69;;;19.78;33.88
50057;BME280;36875;49.468;11.200;2023-02-15T07:30:21;99264.22;;;19.84;34.12
50057;BME280;36875;49.468;11.200;2023-02-15T07:32:48;99255.75;;;19.86;33.75
50057;BME280;36875;49.468;11.200;2023-02-15T07:35:33;99250.84;;;19.82;33.65
50057;BME280;36875;49.468;11.200;2023-02-15T07:37:58;99249.44;;;19.90;33.89
50057;BME280;36875;49.468;11.200;2023-02-15T07:40:24;99251.88;;;20.02;33.79
50057;BME280;36875;49.468;11.200;2023-02-15T07:42:50;99242.56;;;20.08;33.31
50057;BME280;36875;49.468;11.200;2023-02-15T07:45:18;99248.03;;;20.08;33.80
50057;BME280;36875;49.468;11.200;2023-02-15T07:47:44;99244.75;;;20.11;33.82
50057;BME280;36875;49.468;11.200;2023-02-15T07:50:11;99238.94;;;20.23;33.44
50057;BME280;36875;49.468;11.200;2023-02-15T07:52:36;99239.94;;;20.48;33.10
50057;BME280;36875;49.468;11.200;2023-02-15T07:55:02;99245.66;;;20.51;32.94
50057;BME280;36875;49.468;11.200;2023-02-15T07:57:28;99232.97;;;20.71;32.36
50057;BME280;36875;49.468;11.200;2023-02-15T07:59:53;99237.88;;;20.74;32.38
50057;BME280;36875;49.468;11.200;2023-02-15T08:02:19;99241.00;;;20.96;31.85
50057;BME280;36875;49.468;11.200;2023-02-15T08:04:44;99195.34;;;20.92;31.92
50057;BME280;36875;49.468;11.200;2023-02-15T08:07:11;99240.63;;;21.37;31.80
50057;BME280;36875;49.468;11.200;2023-02-15T08:09:36;99245.03;;;21.38;31.91
50057;BME280;36875;49.468;11.200;2023-02-15T08:12:02;99239.50;;;21.44;31.50
50057;BME280;36875;49.468;11.200;2023-02-15T08:14:29;99241.53;;;21.33;31.65
50057;BME280;36875;49.468;11.200;2023-02-15T08:16:55;99244.81;;;21.30;32.23
50057;BME280;36875;49.468;11.200;2023-02-15T08:19:29;99237.38;;;21.35;31.99
50057;BME280;36875;49.468;11.200;2023-02-15T08:21:56;99240.88;;;21.41;31.98
50057;BME280;36875;49.468;11.200;2023-02-15T08:24:25;99244.53;;;21.31;32.07
50057;BME280;36875;49.468;11.200;2023-02-15T08:26:51;99240.97;;;21.36;31.99
50057;BME280;36875;49.468;11.200;2023-02-15T08:29:18;99230.88;;;21.26;32.27
50057;BME280;36875;49.468;11.200;2023-02-15T08:31:44;99232.75;;;21.36;32.09
50057;BME280;36875;49.468;11.200;2023-02-15T08:34:13;99246.44;;;21.36;32.12
50057;BME280;36875;49.468;11.200;2023-02-15T08:36:39;99241.72;;;21.47;32.09
50057;BME280;36875;49.468;11.200;2023-02-15T08:39:05;99243.84;;;21.50;31.99
50057;BME280;36875;49.468;11.200;2023-02-15T08:41:33;99242.25;;;21.49;32.18
50057;BME280;36875;49.468;11.200;2023-02-15T08:44:01;99235.63;;;21.50;32.12
50057;BME280;36875;49.468;11.200;2023-02-15T08:46:28;99242.47;;;21.52;31.86
50057;BME280;36875;49.468;11.200;2023-02-15T08:48:55;99245.03;;;21.68;31.60
50057;BME280;36875;49.468;11.200;2023-02-15T08:51:22;99241.22;;;21.69;31.71
50057;BME280;36875;49.468;11.200;2023-02-15T08:53:51;99243.72;;;21.65;31.46
50057;BME280;36875;49.468;11.200;2023-02-15T08:56:18;99247.50;;;21.69;31.45
50057;BME280;36875;49.468;11.200;2023-02-15T08:58:45;99247.03;;;21.86;31.36
50057;BME280;36875;49.468;11.200;2023-02-15T09:01:13;99247.97;;;21.77;29.98
50057;BME280;36875;49.468;11.200;2023-02-15T09:03:39;99257.28;;;21.75;29.70
50057;BME280;36875;49.468;11.200;2023-02-15T09:06:05;99250.19;;;21.99;29.20
50057;BME280;36875;49.468;11.200;2023-02-15T09:08:31;99248.97;;;22.53;28.35
50057;BME280;36875;49.468;11.200;2023-02-15T09:11:05;99249.63;;;23.02;28.10
50057;BME280;36875;49.468;11.200;2023-02-15T09:13:31;99254.75;;;23.27;27.79
50057;BME280;36875;49.468;11.200;2023-02-15T09:16:00;99258.56;;;23.45;27.81
50057;BME280;36875;49.468;11.200;2023-02-15T09:18:26;99253.81;;;23.65;27.74
50057;BME280;36875;49.468;11.200;2023-02-15T09:20:51;99248.06;;;23.94;27.40
50057;BME280;36875;49.468;11.200;2023-02-15T09:23:20;99251.16;;;23.60;28.37
50057;BME280;36875;49.468;11.200;2023-02-15T09:25:46;99243.63;;;23.52;28.23
50057;BME280;36875;49.468;11.200;2023-02-15T09:28:11;99246.84;;;23.86;28.02
50057;BME280;36875;49.468;11.200;2023-02-15T09:30:37;99237.78;;;23.86;27.71
50057;BME280;36875;49.468;11.200;2023-02-15T09:33:04;99239.38;;;24.15;27.86
50057;BME280;36875;49.468;11.200;2023-02-15T09:35:29;99239.28;;;24.34;27.58
50057;BME280;36875;49.468;11.200;2023-02-15T09:37:55;99239.25;;;24.61;26.93
50057;BME280;36875;49.468;11.200;2023-02-15T09:40:21;99213.47;;;24.43;27.40
50057;BME280;36875;49.468;11.200;2023-02-15T09:45:53;99240.44;;;24.19;27.92
50057;BME280;36875;49.468;11.200;2023-02-15T09:48:32;99244.38;;;23.85;28.32
50057;BME280;36875;49.468;11.200;2023-02-15T09:51:23;99240.31;;;23.96;28.05
50057;BME280;36875;49.468;11.200;2023-02-15T09:54:08;99259.34;;;23.79;28.44
50057;BME280;36875;49.468;11.200;2023-02-15T09:56:39;99220.63;;;23.61;28.55
50057;BME280;36875;49.468;11.200;2023-02-15T09:59:12;99253.78;;;23.84;28.42
50057;BME280;36875;49.468;11.200;2023-02-15T10:01:44;99250.97;;;23.70;28.71
50057;BME280;36875;49.468;11.200;2023-02-15T10:04:27;99258.56;;;23.59;29.04
50057;BME280;36875;49.468;11.200;2023-02-15T10:07:07;99254.94;;;23.64;29.00
50057;BME280;36875;49.468;11.200;2023-02-15T10:09:46;99251.47;;;23.58;28.69
50057;BME280;36875;49.468;11.200;2023-02-15T10:12:28;99252.06;;;23.55;28.85
50057;BME280;36875;49.468;11.200;2023-02-15T10:15:13;99251.56;;;23.53;28.92
50057;BME280;36875;49.468;11.200;2023-02-15T10:17:52;99246.66;;;23.50;29.04
50057;BME280;36875;49.468;11.200;2023-02-15T10:20:28;99245.41;;;23.42;29.23
50057;BME280;36875;49.468;11.200;2023-02-15T10:23:08;99234.09;;;23.30;29.16
50057;BME280;36875;49.468;11.200;2023-02-15T10:25:43;99243.56;;;23.38;29.15
50057;BME280;36875;49.468;11.200;2023-02-15T10:28:16;99241.53;;;23.29;29.17
50057;BME280;36875;49.468;11.200;2023-02-15T10:30:46;99232.19;;;23.31;29.15
50057;BME280;36875;49.468;11.200;2023-02-15T10:33:14;99237.91;;;23.48;28.65
50057;BME280;36875;49.468;11.200;2023-02-15T10:35:52;99230.97;;;23.37;28.96
50057;BME280;36875;49.468;11.200;2023-02-15T10:38:27;99224.53;;;23.27;29.13
50057;BME280;36875;49.468;11.200;2023-02-15T10:41:06;99218.63;;;23.34;29.05
50057;BME280;36875;49.468;11.200;2023-02-15T10:43:47;99213.69;;;23.36;29.00
50057;BME280;36875;49.468;11.200;2023-02-15T10:46:28;99210.94;;;23.50;28.86
50057;BME280;36875;49.468;11.200;2023-02-15T10:51:57;99206.78;;;23.53;28.84
50057;BME280;36875;49.468;11.200;2023-02-15T10:54:33;99210.59;;;23.38;29.07
50057;BME280;36875;49.468;11.200;2023-02-15T10:57:04;99199.72;;;23.33;29.24
50057;BME280;36875;49.468;11.200;2023-02-15T10:59:49;99196.88;;;23.38;29.08
50057;BME280;36875;49.468;11.200;2023-02-15T11:02:25;99171.84;;;23.25;29.14
50057;BME280;36875;49.468;11.200;2023-02-15T11:05:05;99189.69;;;23.42;29.18
50057;BME280;36875;49.468;11.200;2023-02-15T11:07:38;99168.19;;;23.30;29.38
50057;BME280;36875;49.468;11.200;2023-02-15T11:10:13;99184.28;;;23.37;29.13
50057;BME280;36875;49.468;11.200;2023-02-15T11:12:45;99173.81;;;23.53;28.91
50057;BME280;36875;49.468;11.200;2023-02-15T11:15:18;99172.88;;;23.57;29.14
50057;BME280;36875;49.468;11.200;2023-02-15T11:17:50;99161.59;;;23.73;28.96
50057;BME280;36875;49.468;11.200;2023-02-15T11:20:21;99141.66;;;23.81;28.92
50057;BME280;36875;49.468;11.200;2023-02-15T11:22:51;99144.31;;;23.86;29.11
50057;BME280;36875;49.468;11.200;2023-02-15T11:25:20;99141.13;;;23.93;28.93
50057;BME280;36875;49.468;11.200;2023-02-15T11:27:48;99139.47;;;24.05;28.66
50057;BME280;36875;49.468;11.200;2023-02-15T11:30:17;99141.72;;;24.03;28.83
50057;BME280;36875;49.468;11.200;2023-02-15T11:32:45;99133.91;;;23.97;29.18
50057;BME280;36875;49.468;11.200;2023-02-15T11:35:20;99129.44;;;24.01;28.91
50057;BME280;36875;49.468;11.200;2023-02-15T11:37:49;99145.38;;;24.13;28.91
50057;BME280;36875;49.468;11.200;2023-02-15T11:40:20;99147.03;;;24.14;28.88
50057;BME280;36875;49.468;11.200;2023-02-15T11:42:51;99141.41;;;24.19;29.16
50057;BME280;36875;49.468;11.200;2023-02-15T11:45:26;99138.47;;;24.15;28.85
50057;BME280;36875;49.468;11.200;2023-02-15T11:47:52;99147.03;;;24.14;29.08
50057;BME280;36875;49.468;11.200;2023-02-15T11:50:22;99130.53;;;24.14;28.93
50057;BME280;36875;49.468;11.200;2023-02-15T11:52:48;99126.81;;;24.18;28.74
50057;BME280;36875;49.468;11.200;2023-02-15T11:55:19;99125.53;;;24.16;28.84
50057;BME280;36875;49.468;11.200;2023-02-15T11:57:50;99129.69;;;24.13;29.05
50057;BME280;36875;49.468;11.200;2023-02-15T12:00:27;99127.28;;;24.12;29.10
50057;BME280;36875;49.468;11.200;2023-02-15T12:02:57;99114.63;;;24.11;28.97
50057;BME280;36875;49.468;11.200;2023-02-15T12:05:24;99101.44;;;23.99;28.88
50057;BME280;36875;49.468;11.200;2023-02-15T12:07:53;99121.28;;;24.10;28.98
50057;BME280;36875;49.468;11.200;2023-02-15T12:10:24;99119.44;;;24.05;29.05
50057;BME280;36875;49.468;11.200;2023-02-15T12:13:09;99116.97;;;24.03;29.18
50057;BME280;36875;49.468;11.200;2023-02-15T12:15:35;99103.25;;;24.03;29.08
50057;BME280;36875;49.468;11.200;2023-02-15T12:18:01;99110.88;;;24.07;28.92
50057;BME280;36875;49.468;11.200;2023-02-15T12:20:29;99097.34;;;23.96;29.18
50057;BME280;36875;49.468;11.200;2023-02-15T12:22:59;99098.97;;;23.97;29.17
50057;BME280;36875;49.468;11.200;2023-02-15T12:25:36;99103.34;;;23.98;28.91
50057;BME280;36875;49.468;11.200;2023-02-15T12:28:20;99097.03;;;23.98;28.62
50057;BME280;36875;49.468;11.200;2023-02-15T12:30:47;99087.78;;;23.94;28.52
50057;BME280;36875;49.468;11.200;2023-02-15T12:33:25;99088.28;;;23.96;28.51
50057;BME280;36875;49.468;11.200;2023-02-15T12:35:57;99084.75;;;23.95;28.36
50057;BME280;36875;49.468;11.200;2023-02-15T12:38:25;99080.34;;;23.94;28.62
50057;BME280;36875;49.468;11.200;2023-02-15T12:41:01;99083.91;;;23.95;28.67
50057;BME280;36875;49.468;11.200;2023-02-15T12:43:31;99079.53;;;23.94;28.79
50057;BME280;36875;49.468;11.200;2023-02-15T12:46:14;99070.91;;;23.86;28.81
50057;BME280;36875;49.468;11.200;2023-02-15T12:48:44;99069.97;;;23.91;28.94
50057;BME280;36875;49.468;11.200;2023-02-15T12:51:15;99068.47;;;23.85;29.07
50057;BME280;36875;49.468;11.200;2023-02-15T12:53:41;99054.81;;;23.80;28.77
50057;BME280;36875;49.468;11.200;2023-02-15T12:56:09;99051.03;;;23.76;28.38
50057;BME280;36875;49.468;11.200;2023-02-15T12:58:36;99038.34;;;23.66;28.58
50057;BME280;36875;49.468;11.200;2023-02-15T13:01:09;99051.16;;;23.71;28.66
50057;BME280;36875;49.468;11.200;2023-02-15T13:03:58;99047.09;;;23.68;28.77
50057;BME280;36875;49.468;11.200;2023-02-15T13:06:24;99059.53;;;23.65;28.84
50057;BME280;36875;49.468;11.200;2023-02-15T13:08:52;99050.13;;;23.66;29.18
50057;BME280;36875;49.468;11.200;2023-02-15T13:11:22;99048.00;;;23.63;29.05